Time;durP1;ratioP1;P1;durP2;ratioP2;P2;SDS_P1;SDS_P2;PMS_P1;PMS_P2;Temp;Humidity;BMP_temperature;BMP_pressure;BME280_temperature;BME280_humidity;BME280_pressure;Samples;Min_cycle;Max_cycle;Signal;HPM_P1;HPM_P2
2023/03/03 00:01:19;;;;;;;30.87;18.47;;;2.30;99.90;;;;;;5091865;28;20204;-70
2023/03/03 00:03:49;;;;;;;28.70;17.97;;;2.40;99.90;;;;;;5091535;28;20232;-72
2023/03/03 00:06:18;;;;;;;26.97;16.00;;;2.40;99.90;;;;;;5091757;28;20739;-71
2023/03/03 00:08:47;;;;;;;27.47;16.03;;;2.30;99.90;;;;;;5091722;28;20218;-71
2023/03/03 00:11:17;;;;;;;24.73;16.13;;;2.30;99.90;;;;;;5091586;28;20226;-71
2023/03/03 00:13:47;;;;;;;24.70;15.50;;;2.20;99.90;;;;;;5091609;28;20205;-71
2023/03/03 00:16:22;;;;;;;23.53;14.40;;;2.00;99.90;;;;;;5091613;28;20223;-71
2023/03/03 00:18:53;;;;;;;24.73;15.33;;;2.00;99.90;;;;;;5091106;28;20200;-71
2023/03/03 00:21:30;;;;;;;21.63;14.77;;;2.20;99.90;;;;;;5073451;28;20721;-69
2023/03/03 00:24:17;;;;;;;23.93;14.27;;;2.30;99.90;;;;;;5091563;28;20233;-70
2023/03/03 00:26:47;;;;;;;21.07;13.10;;;2.30;99.90;;;;;;5091463;28;20212;-72
2023/03/03 00:29:40;;;;;;;19.07;13.67;;;2.20;99.90;;;;;;5091321;28;20225;-71
2023/03/03 00:32:38;;;;;;;18.00;12.40;;;2.30;99.90;;;;;;4992940;28;20213;-69
2023/03/03 00:35:24;;;;;;;21.07;12.53;;;2.30;99.90;;;;;;4970235;28;20596;-73
2023/03/03 00:37:55;;;;;;;16.57;11.73;;;2.30;99.90;;;;;;4954073;28;20217;-71
2023/03/03 00:40:26;;;;;;;17.80;12.23;;;2.30;99.90;;;;;;4954120;28;20235;-70
2023/03/03 00:42:57;;;;;;;15.00;12.00;;;2.30;99.90;;;;;;4970218;28;20860;-71
2023/03/03 00:45:31;;;;;;;19.67;12.97;;;2.20;99.90;;;;;;4954051;28;20210;-70
2023/03/03 00:48:17;;;;;;;21.87;11.93;;;2.20;99.90;;;;;;4953299;28;20895;-72
2023/03/03 00:50:47;;;;;;;18.10;11.90;;;2.20;99.90;;;;;;4970230;28;20209;-73
2023/03/03 00:53:18;;;;;;;17.63;13.17;;;2.20;99.90;;;;;;4973172;28;20234;-70
2023/03/03 00:55:48;;;;;;;17.17;11.30;;;2.20;99.90;;;;;;4973764;28;20215;-73
2023/03/03 00:58:20;;;;;;;18.83;13.07;;;2.20;99.90;;;;;;4957680;28;20213;-70
2023/03/03 01:00:51;;;;;;;20.63;12.50;;;2.20;99.90;;;;;;4958022;28;20292;-70
2023/03/03 01:03:26;;;;;;;18.57;12.20;;;2.20;99.90;;;;;;4957456;28;20322;-72
2023/03/03 01:05:56;;;;;;;23.53;12.97;;;2.20;99.90;;;;;;4957579;28;20230;-71
2023/03/03 01:08:25;;;;;;;22.67;13.57;;;2.10;99.90;;;;;;4976903;28;20206;-71
2023/03/03 01:10:57;;;;;;;21.63;13.67;;;2.10;99.90;;;;;;5025360;28;20226;-70
2023/03/03 01:13:28;;;;;;;19.87;13.33;;;2.10;99.90;;;;;;5076548;28;20590;-69
2023/03/03 01:15:58;;;;;;;17.77;13.00;;;2.20;99.90;;;;;;5076545;28;20946;-70
2023/03/03 01:18:27;;;;;;;22.13;13.40;;;2.20;99.90;;;;;;5094232;28;20222;-70
2023/03/03 01:20:58;;;;;;;23.47;14.43;;;2.30;99.90;;;;;;5094806;28;20214;-71
2023/03/03 01:23:27;;;;;;;22.87;13.13;;;2.30;99.90;;;;;;5076446;28;20226;-70
2023/03/03 01:25:56;;;;;;;21.30;14.23;;;2.30;99.90;;;;;;5076272;28;20618;-72
2023/03/03 01:28:25;;;;;;;18.93;12.90;;;2.30;99.90;;;;;;5094231;28;20193;-71
2023/03/03 01:30:54;;;;;;;19.77;13.00;;;2.40;99.90;;;;;;5094608;28;20197;-73
2023/03/03 01:33:23;;;;;;;21.67;13.40;;;2.40;99.90;;;;;;5075984;28;20196;-71
2023/03/03 01:35:52;;;;;;;19.93;13.20;;;2.40;99.90;;;;;;5093984;28;20212;-71
2023/03/03 01:38:22;;;;;;;23.93;13.30;;;2.30;99.90;;;;;;5094994;28;20194;-72
2023/03/03 01:40:55;;;;;;;19.23;12.47;;;2.30;99.90;;;;;;5094844;28;20190;-71
2023/03/03 01:43:26;;;;;;;22.37;13.97;;;2.20;99.90;;;;;;5094213;28;20201;-72
2023/03/03 01:46:34;;;;;;;22.43;13.43;;;2.20;99.90;;;;;;5094231;28;20689;-71
2023/03/03 01:49:08;;;;;;;19.17;13.23;;;2.10;99.90;;;;;;4995087;28;20698;-72
2023/03/03 01:51:43;;;;;;;17.27;12.37;;;2.10;99.90;;;;;;4995524;28;20204;-72
2023/03/03 01:54:20;;;;;;;20.00;13.40;;;2.20;99.90;;;;;;4995566;28;20234;-72
2023/03/03 01:56:52;;;;;;;21.97;14.13;;;2.20;99.90;;;;;;5012060;28;20697;-73
2023/03/03 01:59:23;;;;;;;19.60;13.50;;;2.30;99.90;;;;;;4995397;28;20254;-72
2023/03/03 02:01:53;;;;;;;24.00;13.80;;;2.40;99.90;;;;;;4995412;28;20218;-74
2023/03/03 02:04:22;;;;;;;21.33;13.70;;;2.30;99.90;;;;;;5011036;28;20293;-71
2023/03/03 02:06:55;;;;;;;22.27;14.17;;;2.30;99.90;;;;;;4995263;28;20269;-73
2023/03/03 02:09:33;;;;;;;20.03;13.17;;;2.20;99.90;;;;;;4995164;28;20222;-70
2023/03/03 02:12:05;;;;;;;20.10;13.37;;;2.30;99.90;;;;;;5011541;28;20676;-71
2023/03/03 02:14:35;;;;;;;20.13;13.23;;;2.40;99.90;;;;;;5011612;28;20209;-72
2023/03/03 02:17:04;;;;;;;22.30;13.50;;;2.30;99.90;;;;;;5011473;28;20209;-70
2023/03/03 02:19:42;;;;;;;23.20;13.43;;;2.40;99.90;;;;;;4994562;28;20225;-70
2023/03/03 02:22:13;;;;;;;19.33;12.67;;;2.40;99.90;;;;;;5011527;28;20752;-72
2023/03/03 02:24:50;;;;;;;23.90;14.27;;;2.40;99.90;;;;;;4994865;28;20234;-69
2023/03/03 02:27:22;;;;;;;22.73;13.30;;;2.40;99.90;;;;;;5075219;28;20217;-70
2023/03/03 02:29:52;;;;;;;20.07;13.47;;;2.50;99.90;;;;;;5075075;28;20214;-70
2023/03/03 02:32:21;;;;;;;27.60;15.87;;;2.50;99.90;;;;;;5075288;28;20208;-71
2023/03/03 02:34:52;;;;;;;19.27;13.20;;;2.60;99.90;;;;;;5093284;28;20193;-71
2023/03/03 02:37:21;;;;;;;18.73;13.17;;;2.60;99.90;;;;;;5093216;28;20242;-71
2023/03/03 02:39:50;;;;;;;25.30;13.67;;;2.60;99.90;;;;;;5074926;28;20212;-71
2023/03/03 02:42:23;;;;;;;20.90;12.27;;;2.60;99.90;;;;;;5093294;28;20192;-72
2023/03/03 02:44:55;;;;;;;22.77;13.80;;;2.60;99.90;;;;;;5074859;28;20265;-72
2023/03/03 02:47:24;;;;;;;22.60;11.77;;;2.60;99.90;;;;;;5092881;28;20288;-71
2023/03/03 02:49:53;;;;;;;22.77;14.03;;;2.60;99.90;;;;;;5074480;28;20214;-71
2023/03/03 02:52:22;;;;;;;24.93;15.23;;;2.60;99.90;;;;;;5074927;28;20192;-71
2023/03/03 02:54:51;;;;;;;23.43;15.30;;;2.70;99.90;;;;;;5074851;28;20199;-71
2023/03/03 02:57:20;;;;;;;20.93;12.57;;;2.80;99.90;;;;;;5093047;28;20215;-72
2023/03/03 02:59:50;;;;;;;21.47;12.37;;;2.70;99.90;;;;;;5092710;28;20193;-70
2023/03/03 03:02:19;;;;;;;21.03;13.13;;;2.70;99.90;;;;;;5092931;28;20217;-72
2023/03/03 03:04:48;;;;;;;23.60;13.73;;;2.70;99.90;;;;;;5074420;28;20232;-71
2023/03/03 03:07:22;;;;;;;17.73;12.77;;;2.80;99.90;;;;;;5074394;28;20209;-71
2023/03/03 03:09:50;;;;;;;23.73;14.67;;;2.80;99.90;;;;;;5092570;28;20206;-72
2023/03/03 03:12:20;;;;;;;20.67;12.77;;;2.90;99.90;;;;;;5074585;28;20201;-70
2023/03/03 03:14:53;;;;;;;22.23;13.60;;;2.90;99.90;;;;;;5074184;28;20208;-71
2023/03/03 03:17:22;;;;;;;18.80;12.60;;;2.90;99.90;;;;;;5092038;28;20199;-73
2023/03/03 03:19:53;;;;;;;24.87;15.07;;;2.90;99.90;;;;;;5074169;28;20195;-73
2023/03/03 03:22:22;;;;;;;21.93;13.77;;;2.90;99.90;;;;;;5074290;28;20668;-72
2023/03/03 03:24:51;;;;;;;20.23;12.57;;;2.80;99.90;;;;;;5092261;28;20974;-72
2023/03/03 03:27:22;;;;;;;22.53;13.73;;;2.80;99.90;;;;;;5050433;28;20203;-72
2023/03/03 03:29:56;;;;;;;24.53;14.10;;;2.90;99.90;;;;;;5033322;28;21082;-71
2023/03/03 03:32:26;;;;;;;23.40;14.53;;;2.90;99.90;;;;;;5033072;28;20329;-73
2023/03/03 03:34:55;;;;;;;25.63;15.30;;;2.90;99.90;;;;;;5032888;28;20194;-73
2023/03/03 03:37:24;;;;;;;28.10;16.60;;;2.90;99.90;;;;;;5033046;28;20209;-70
2023/03/03 03:39:53;;;;;;;22.57;14.17;;;3.00;99.90;;;;;;5032962;28;20571;-71
2023/03/03 03:42:22;;;;;;;25.27;15.40;;;3.00;99.90;;;;;;5049577;28;20229;-72
2023/03/03 03:44:50;;;;;;;26.43;15.57;;;3.00;99.90;;;;;;5041212;28;20233;-73
2023/03/03 03:47:21;;;;;;;24.60;15.03;;;3.00;99.90;;;;;;5073762;28;20245;-72
2023/03/03 03:49:50;;;;;;;28.20;16.67;;;3.00;99.90;;;;;;5073285;28;20203;-70
2023/03/03 03:52:20;;;;;;;25.10;15.60;;;3.00;99.90;;;;;;5073858;28;20586;-71
2023/03/03 03:54:49;;;;;;;29.73;15.73;;;3.00;99.90;;;;;;5073590;28;20204;-70
2023/03/03 03:57:18;;;;;;;27.73;16.63;;;3.00;99.90;;;;;;5073701;28;20673;-70
2023/03/03 03:59:49;;;;;;;30.03;16.03;;;3.10;99.90;;;;;;5091856;28;20204;-71
2023/03/03 04:02:20;;;;;;;27.57;16.63;;;3.10;99.90;;;;;;5073574;28;20206;-71
2023/03/03 04:04:49;;;;;;;30.70;16.70;;;3.10;99.90;;;;;;5073405;28;20726;-70
2023/03/03 04:07:17;;;;;;;30.90;16.47;;;3.10;99.90;;;;;;5073608;28;20569;-71
2023/03/03 04:09:47;;;;;;;29.17;15.97;;;3.10;99.90;;;;;;5073513;28;20219;-70
2023/03/03 04:12:16;;;;;;;35.23;16.33;;;3.10;99.90;;;;;;5091628;28;20192;-69
2023/03/03 04:14:45;;;;;;;27.00;16.13;;;3.10;99.90;;;;;;5092492;28;20196;-72
2023/03/03 04:17:17;;;;;;;28.03;16.43;;;3.10;99.90;;;;;;5073444;28;20240;-71
2023/03/03 04:19:48;;;;;;;33.07;17.63;;;3.20;99.90;;;;;;5073319;28;20200;-71
2023/03/03 04:22:17;;;;;;;26.97;16.73;;;3.20;99.90;;;;;;5091564;28;20221;-70
2023/03/03 04:24:47;;;;;;;32.63;18.17;;;3.20;99.90;;;;;;5073404;28;20199;-71
2023/03/03 04:27:17;;;;;;;31.50;18.23;;;3.10;99.90;;;;;;5074922;28;20233;-70
2023/03/03 04:29:47;;;;;;;32.63;17.87;;;3.10;99.90;;;;;;5077454;28;20229;-70
2023/03/03 04:32:17;;;;;;;32.47;18.13;;;3.10;99.90;;;;;;5077332;28;20204;-70
2023/03/03 04:34:49;;;;;;;36.73;17.30;;;3.20;99.90;;;;;;5077176;28;20264;-72
2023/03/03 04:37:34;;;;;;;31.93;17.33;;;3.10;99.90;;;;;;5077460;28;20257;-73
2023/03/03 04:40:03;;;;;;;31.70;18.17;;;3.10;99.90;;;;;;5095638;28;20203;-70
2023/03/03 04:42:33;;;;;;;29.07;17.17;;;3.20;99.90;;;;;;5077067;28;20247;-71
2023/03/03 04:45:02;;;;;;;29.27;17.67;;;3.20;99.90;;;;;;5077221;28;20317;-70
2023/03/03 04:47:32;;;;;;;34.30;18.87;;;3.20;99.90;;;;;;5077037;28;20266;-73
2023/03/03 04:50:02;;;;;;;33.57;17.30;;;3.20;99.90;;;;;;5077124;28;20216;-72
2023/03/03 04:52:33;;;;;;;31.30;17.60;;;3.20;99.90;;;;;;5076981;28;20192;-70
2023/03/03 04:55:03;;;;;;;28.87;17.53;;;3.30;99.90;;;;;;5077098;28;20219;-70
2023/03/03 04:57:32;;;;;;;34.37;17.47;;;3.30;99.90;;;;;;5077084;28;20541;-70
2023/03/03 05:00:03;;;;;;;31.83;17.97;;;3.30;99.90;;;;;;5076986;28;20204;-71
2023/03/03 05:02:32;;;;;;;29.70;16.73;;;3.40;99.90;;;;;;5076907;28;20623;-70
2023/03/03 05:05:02;;;;;;;30.27;18.40;;;3.40;99.90;;;;;;5076481;28;20773;-71
2023/03/03 05:07:31;;;;;;;29.17;16.33;;;3.40;99.90;;;;;;5094445;28;20221;-71
2023/03/03 05:10:00;;;;;;;34.63;17.30;;;3.40;99.90;;;;;;5095854;28;20193;-71
2023/03/03 05:12:29;;;;;;;29.37;17.53;;;3.40;99.90;;;;;;5095184;28;20201;-71
2023/03/03 05:14:58;;;;;;;29.53;17.70;;;3.40;99.90;;;;;;5094480;28;20197;-71
2023/03/03 05:17:27;;;;;;;29.93;17.53;;;3.50;99.90;;;;;;5094229;28;20596;-72
2023/03/03 05:19:56;;;;;;;30.27;16.60;;;3.60;99.90;;;;;;5094672;28;20204;-71
2023/03/03 05:22:27;;;;;;;26.77;17.63;;;3.60;99.90;;;;;;5094982;28;20194;-70
2023/03/03 05:24:56;;;;;;;27.23;16.20;;;3.70;99.90;;;;;;5095556;28;20228;-70
2023/03/03 05:27:25;;;;;;;22.93;14.47;;;3.60;99.90;;;;;;5094524;28;20229;-70
2023/03/03 05:29:54;;;;;;;22.97;14.23;;;3.60;99.90;;;;;;5087098;28;20204;-70
2023/03/03 05:32:23;;;;;;;26.90;15.57;;;3.60;99.90;;;;;;5086634;28;20271;-72
2023/03/03 05:34:52;;;;;;;23.30;14.77;;;3.70;99.90;;;;;;5094442;28;20737;-71
2023/03/03 05:37:22;;;;;;;22.23;14.13;;;3.80;99.90;;;;;;5083189;28;20202;-71
2023/03/03 05:39:52;;;;;;;24.70;15.83;;;3.80;99.90;;;;;;5073029;28;20223;-70
2023/03/03 05:42:21;;;;;;;24.53;15.63;;;3.80;99.90;;;;;;5074024;28;20252;-70
2023/03/03 05:44:50;;;;;;;26.57;14.37;;;3.80;99.90;;;;;;5073995;28;20191;-70
2023/03/03 05:47:19;;;;;;;24.10;15.00;;;3.80;99.90;;;;;;5073650;28;20638;-69
2023/03/03 05:49:48;;;;;;;25.87;15.50;;;3.80;99.90;;;;;;5073470;28;20225;-70
2023/03/03 05:52:16;;;;;;;24.60;15.20;;;3.80;99.90;;;;;;5080776;28;20250;-68
2023/03/03 05:54:45;;;;;;;21.27;14.20;;;3.80;99.90;;;;;;5093898;28;20258;-70
2023/03/03 05:57:16;;;;;;;22.47;14.40;;;3.90;99.90;;;;;;5093795;28;20623;-68
2023/03/03 05:59:45;;;;;;;27.83;15.00;;;3.90;99.90;;;;;;5093784;28;20397;-70
2023/03/03 06:02:13;;;;;;;24.87;14.07;;;3.80;99.90;;;;;;5094138;28;20198;-71
2023/03/03 06:04:42;;;;;;;21.37;13.70;;;3.80;99.90;;;;;;5093775;28;20192;-71
2023/03/03 06:07:11;;;;;;;23.53;13.90;;;3.80;99.90;;;;;;5093590;28;20227;-71
2023/03/03 06:09:40;;;;;;;20.00;14.00;;;3.80;99.90;;;;;;5093816;28;20197;-70
2023/03/03 06:12:09;;;;;;;20.90;13.30;;;3.80;99.90;;;;;;5093507;28;20757;-69
2023/03/03 06:14:39;;;;;;;24.00;13.43;;;3.70;99.90;;;;;;5093665;28;20207;-69
2023/03/03 06:17:09;;;;;;;21.13;13.87;;;3.70;99.90;;;;;;5093464;28;20276;-67
2023/03/03 06:19:40;;;;;;;22.60;14.17;;;3.70;99.90;;;;;;5093584;28;20224;-70
2023/03/03 06:22:09;;;;;;;27.00;14.33;;;3.70;99.90;;;;;;5093109;28;20201;-70
2023/03/03 06:24:38;;;;;;;19.93;13.37;;;3.80;99.90;;;;;;5093552;28;20224;-70
2023/03/03 06:27:07;;;;;;;21.53;13.57;;;3.80;99.90;;;;;;5093509;28;20314;-70
2023/03/03 06:29:38;;;;;;;20.77;13.90;;;3.80;99.90;;;;;;5093230;28;20226;-69
2023/03/03 06:32:07;;;;;;;21.73;13.30;;;3.90;99.90;;;;;;5092544;28;20197;-70
2023/03/03 06:34:36;;;;;;;19.37;13.20;;;4.00;99.90;;;;;;5093050;28;20670;-69
2023/03/03 06:37:05;;;;;;;19.50;13.67;;;4.00;99.90;;;;;;5093156;28;20191;-70
2023/03/03 06:39:34;;;;;;;18.77;13.63;;;4.10;99.90;;;;;;5093029;28;20211;-70
2023/03/03 06:42:03;;;;;;;18.47;13.07;;;4.20;99.90;;;;;;5093265;28;20205;-71
2023/03/03 06:44:32;;;;;;;22.03;14.40;;;4.20;99.90;;;;;;5092868;28;20223;-69
2023/03/03 06:47:02;;;;;;;20.43;12.47;;;4.30;99.90;;;;;;5092630;28;20218;-70
2023/03/03 06:49:31;;;;;;;20.57;13.97;;;4.40;99.90;;;;;;5092895;28;20195;-69
2023/03/03 06:52:05;;;;;;;21.83;13.23;;;4.40;99.90;;;;;;5092578;28;20195;-69
2023/03/03 06:54:34;;;;;;;21.80;13.27;;;4.50;99.90;;;;;;5092711;28;20655;-69
2023/03/03 06:57:15;;;;;;;18.63;12.57;;;4.60;99.90;;;;;;5092734;28;20218;-70
2023/03/03 06:59:44;;;;;;;22.73;13.07;;;4.70;99.90;;;;;;5092523;28;20584;-70
2023/03/03 07:02:17;;;;;;;21.07;13.70;;;4.90;99.90;;;;;;5091141;28;20197;-69
2023/03/03 07:04:47;;;;;;;21.43;13.37;;;4.90;99.90;;;;;;5092777;28;20293;-69
2023/03/03 07:07:20;;;;;;;16.47;11.20;;;5.00;99.90;;;;;;5092476;28;20755;-70
2023/03/03 07:09:50;;;;;;;17.93;11.70;;;5.00;99.90;;;;;;5092500;28;20254;-71
2023/03/03 07:12:22;;;;;;;16.40;10.27;;;5.10;99.90;;;;;;5092570;28;20198;-69
2023/03/03 07:14:54;;;;;;;12.77;8.77;;;5.10;99.90;;;;;;5092541;28;20203;-69
2023/03/03 07:17:26;;;;;;;12.30;8.60;;;5.20;99.90;;;;;;5090637;28;20192;-71
2023/03/03 07:19:55;;;;;;;12.43;7.53;;;5.40;99.90;;;;;;5091967;28;20191;-70
2023/03/03 07:22:29;;;;;;;9.93;8.00;;;5.50;99.90;;;;;;5091730;28;20199;-70
2023/03/03 07:25:01;;;;;;;15.80;8.57;;;5.60;99.90;;;;;;5092076;28;20646;-71
2023/03/03 07:27:31;;;;;;;14.23;8.30;;;5.50;99.90;;;;;;5092084;28;20284;-70
2023/03/03 07:30:21;;;;;;;13.20;7.77;;;5.50;99.90;;;;;;5092285;28;20198;-69
2023/03/03 07:32:55;;;;;;;12.93;9.27;;;5.50;99.90;;;;;;5092179;28;20200;-71
2023/03/03 07:35:43;;;;;;;13.03;9.47;;;5.70;99.90;;;;;;5092002;28;20203;-69
2023/03/03 07:38:23;;;;;;;13.47;8.67;;;5.70;99.90;;;;;;5087558;28;20673;-69
2023/03/03 07:40:53;;;;;;;11.60;8.33;;;5.80;99.90;;;;;;5081315;28;20200;-71
2023/03/03 07:43:31;;;;;;;11.63;8.53;;;5.80;99.90;;;;;;5072235;28;20197;-70
2023/03/03 07:46:13;;;;;;;10.20;8.03;;;5.70;99.90;;;;;;5072132;28;20212;-70
2023/03/03 07:48:44;;;;;;;8.17;7.10;;;5.70;99.90;;;;;;5089547;28;20709;-69
2023/03/03 07:51:21;;;;;;;30.10;16.57;;;5.60;99.90;;;;;;5092407;28;20569;-71
2023/03/03 07:53:51;;;;;;;8.63;6.90;;;5.90;99.90;;;;;;5091405;28;20302;-69
2023/03/03 07:56:29;;;;;;;8.97;6.97;;;6.00;99.90;;;;;;5092333;28;20200;-71
2023/03/03 07:58:59;;;;;;;7.80;6.60;;;6.10;99.90;;;;;;5092472;28;20607;-69
2023/03/03 08:01:44;;;;;;;10.77;7.17;;;6.20;99.90;;;;;;5091200;28;20219;-70
2023/03/03 08:04:24;;;;;;;11.73;7.00;;;6.30;99.90;;;;;;5091744;28;20666;-69
2023/03/03 08:06:55;;;;;;;7.43;5.90;;;6.30;99.90;;;;;;5091592;28;20200;-69
2023/03/03 08:09:48;;;;;;;10.20;7.50;;;6.30;99.90;;;;;;5091804;28;20231;-70
2023/03/03 08:12:40;;;;;;;10.33;6.97;;;6.40;99.90;;;;;;5085252;28;20295;-68
2023/03/03 08:15:20;;;;;;;11.00;8.00;;;6.60;99.90;;;;;;5071237;28;20297;-68
2023/03/03 08:17:51;;;;;;;26.30;16.20;;;6.60;99.90;;;;;;5071216;28;20677;-69
2023/03/03 08:20:44;;;;;;;12.47;7.93;;;6.50;99.90;;;;;;5071243;28;20236;-69
2023/03/03 08:23:14;;;;;;;13.33;8.60;;;6.30;99.90;;;;;;5077822;28;20213;-69
2023/03/03 08:25:43;;;;;;;12.97;9.27;;;6.00;99.90;;;;;;5089424;28;20203;-69
2023/03/03 08:28:13;;;;;;;13.43;9.00;;;5.90;99.90;;;;;;5091184;28;20765;-70
2023/03/03 08:30:42;;;;;;;16.23;9.87;;;6.10;99.90;;;;;;5080578;28;20238;-71
2023/03/03 08:33:12;;;;;;;14.20;10.77;;;6.40;99.90;;;;;;5091311;28;20208;-70
2023/03/03 08:35:43;;;;;;;15.10;10.00;;;6.60;99.90;;;;;;5090527;28;20207;-70
2023/03/03 08:38:13;;;;;;;14.83;9.20;;;6.70;99.90;;;;;;5079941;28;20205;-69
2023/03/03 08:40:42;;;;;;;14.43;9.63;;;6.60;99.90;;;;;;5091442;28;20717;-70
2023/03/03 08:43:15;;;;;;;14.17;9.73;;;6.50;99.90;;;;;;5091461;28;20270;-70
2023/03/03 08:45:46;;;;;;;12.73;9.50;;;6.50;99.90;;;;;;5091383;28;20192;-71
2023/03/03 08:48:15;;;;;;;14.77;9.57;;;6.40;99.90;;;;;;5091166;28;20236;-72
2023/03/03 08:50:46;;;;;;;12.90;9.30;;;6.30;99.90;;;;;;5091270;28;20207;-72
2023/03/03 08:53:15;;;;;;;13.93;8.90;;;6.40;99.90;;;;;;5091326;28;20215;-72
2023/03/03 08:55:46;;;;;;;11.77;8.50;;;6.40;99.90;;;;;;5091324;28;20223;-72
2023/03/03 08:58:15;;;;;;;12.27;8.60;;;6.40;99.90;;;;;;5091181;28;20244;-71
2023/03/03 09:00:44;;;;;;;11.20;8.60;;;6.40;99.90;;;;;;5091145;28;20678;-72
2023/03/03 09:03:16;;;;;;;11.40;7.73;;;6.30;99.90;;;;;;5091115;28;20213;-71
2023/03/03 09:05:47;;;;;;;10.00;8.00;;;6.40;99.90;;;;;;5091035;28;20230;-72
2023/03/03 09:08:15;;;;;;;9.00;6.83;;;6.40;99.90;;;;;;5091110;28;20731;-71
2023/03/03 09:10:44;;;;;;;7.77;6.63;;;6.40;99.90;;;;;;5072514;28;20196;-72
2023/03/03 09:13:15;;;;;;;11.03;7.63;;;6.30;99.90;;;;;;5092352;28;20222;-70
2023/03/03 09:15:44;;;;;;;12.67;7.77;;;6.20;99.90;;;;;;5095068;28;20278;-71
2023/03/03 09:18:18;;;;;;;11.37;8.53;;;6.30;99.90;;;;;;5095155;28;20692;-74
2023/03/03 09:20:49;;;;;;;14.63;7.37;;;6.50;99.90;;;;;;5094754;28;20227;-72
2023/03/03 09:23:36;;;;;;;9.03;7.03;;;6.50;99.90;;;;;;5094612;28;20199;-73
2023/03/03 09:26:31;;;;;;;9.73;7.57;;;6.70;99.90;;;;;;5094659;28;20192;-72
2023/03/03 09:29:17;;;;;;;11.97;7.97;;;6.70;99.90;;;;;;5094621;28;20251;-72
2023/03/03 09:31:50;;;;;;;9.53;6.10;;;6.70;99.90;;;;;;5094640;28;20254;-72
2023/03/03 09:34:22;;;;;;;12.57;7.20;;;6.90;99.90;;;;;;5094525;28;20204;-70
2023/03/03 09:36:53;;;;;;;10.17;6.80;;;6.90;99.90;;;;;;5094349;28;20677;-73
2023/03/03 09:39:24;;;;;;;10.73;7.23;;;7.10;99.20;;;;;;5094433;28;20193;-72
2023/03/03 09:42:41;;;;;;;9.20;6.47;;;7.40;97.90;;;;;;5094373;28;20200;-75
2023/03/03 09:45:53;;;;;;;8.10;6.17;;;7.70;96.70;;;;;;5094436;28;20575;-69
2023/03/03 09:48:44;;;;;;;7.70;5.90;;;7.60;92.70;;;;;;5011825;28;20239;-70
2023/03/03 09:51:27;;;;;;;9.13;5.33;;;7.70;93.40;;;;;;5012151;28;20321;-72
2023/03/03 09:54:19;;;;;;;6.17;4.70;;;7.50;93.10;;;;;;5012182;28;20206;-72
2023/03/03 09:56:55;;;;;;;6.43;5.83;;;7.80;92.80;;;;;;5012054;28;20294;-71
2023/03/03 09:59:37;;;;;;;6.87;6.17;;;8.80;85.70;;;;;;5012161;28;20204;-68
2023/03/03 10:02:24;;;;;;;6.60;5.10;;;9.80;77.60;;;;;;5011900;28;20241;-69
2023/03/03 10:05:05;;;;;;;5.87;4.73;;;11.40;66.50;;;;;;5011874;28;20197;-70
2023/03/03 10:07:42;;;;;;;6.77;5.90;;;9.90;66.70;;;;;;5011801;28;20204;-72
2023/03/03 10:10:47;;;;;;;5.73;4.90;;;10.00;72.00;;;;;;5011755;28;20221;-71
2023/03/03 10:13:26;;;;;;;6.67;5.77;;;10.90;65.70;;;;;;5011775;28;20209;-70
2023/03/03 10:16:15;;;;;;;6.03;4.37;;;11.70;62.00;;;;;;5011916;28;20210;-72
2023/03/03 10:18:51;;;;;;;6.23;4.67;;;11.90;59.40;;;;;;5011537;28;20203;-72
2023/03/03 10:21:27;;;;;;;5.00;4.10;;;11.40;59.10;;;;;;5017697;28;20203;-70
2023/03/03 10:24:00;;;;;;;8.07;4.63;;;11.30;59.90;;;;;;5093759;28;20191;-72
2023/03/03 10:26:57;;;;;;;4.63;4.10;;;10.40;62.50;;;;;;5093092;28;20211;-72
2023/03/03 10:29:48;;;;;;;4.33;3.90;;;9.70;65.10;;;;;;5093530;28;20275;-72
2023/03/03 10:32:40;;;;;;;4.80;4.37;;;9.30;68.70;;;;;;5093788;28;20202;-72
2023/03/03 10:35:24;;;;;;;14.97;7.97;;;10.20;66.30;;;;;;5093535;28;20227;-72
2023/03/03 10:38:13;;;;;;;12.20;7.67;;;9.60;65.60;;;;;;5075295;28;20206;-72
2023/03/03 10:40:50;;;;;;;5.93;4.00;;;9.50;68.30;;;;;;5093614;28;20742;-72
2023/03/03 10:43:35;;;;;;;5.57;4.87;;;9.40;68.50;;;;;;5093367;28;20210;-74
2023/03/03 10:46:20;;;;;;;14.70;8.13;;;9.70;68.30;;;;;;5093304;28;20207;-72
2023/03/03 10:49:04;;;;;;;7.30;4.80;;;10.10;68.50;;;;;;5092802;28;20689;-71
2023/03/03 10:51:43;;;;;;;9.27;5.67;;;10.80;63.00;;;;;;5093125;28;20204;-72
2023/03/03 10:54:29;;;;;;;9.07;6.30;;;14.10;57.50;;;;;;5093136;28;20198;-72
2023/03/03 10:57:07;;;;;;;8.70;4.80;;;17.10;51.30;;;;;;5093140;28;20258;-73
2023/03/03 10:59:58;;;;;;;7.07;5.30;;;17.30;49.50;;;;;;5092856;28;20208;-72
2023/03/03 11:02:35;;;;;;;4.83;4.23;;;15.10;48.30;;;;;;5092991;28;20194;-71
2023/03/03 11:05:23;;;;;;;6.40;3.67;;;14.50;49.70;;;;;;5092822;28;20193;-71
2023/03/03 11:07:59;;;;;;;3.13;2.80;;;13.00;51.50;;;;;;5092685;28;20285;-71
2023/03/03 11:10:43;;;;;;;4.57;2.80;;;11.60;53.20;;;;;;5092633;28;20224;-70
2023/03/03 11:13:23;;;;;;;6.20;3.43;;;13.60;53.00;;;;;;5092474;28;20201;-70
2023/03/03 11:16:06;;;;;;;3.70;2.50;;;16.40;48.80;;;;;;5092548;28;20209;-70
2023/03/03 11:18:44;;;;;;;4.03;3.57;;;17.50;44.20;;;;;;5092745;28;20218;-71
2023/03/03 11:21:19;;;;;;;3.87;2.97;;;18.90;43.40;;;;;;5092542;28;20213;-70
2023/03/03 11:24:00;;;;;;;6.10;3.03;;;20.60;40.90;;;;;;5092434;28;20202;-72
2023/03/03 11:26:50;;;;;;;4.73;2.20;;;21.20;38.60;;;;;;5092388;28;20303;-71
2023/03/03 11:29:36;;;;;;;4.60;2.60;;;21.80;37.10;;;;;;5092173;28;20229;-72
2023/03/03 11:32:22;;;;;;;3.37;2.50;;;21.70;35.10;;;;;;5092437;28;20211;-72
2023/03/03 11:35:08;;;;;;;3.93;2.10;;;20.90;34.10;;;;;;5092325;28;20195;-73
2023/03/03 11:37:45;;;;;;;4.97;1.87;;;21.40;34.60;;;;;;5091322;28;20194;-73
2023/03/03 11:40:19;;;;;;;2.80;1.73;;;21.30;33.30;;;;;;5092247;28;20230;-72
2023/03/03 11:43:01;;;;;;;3.10;1.60;;;21.50;33.00;;;;;;5092285;28;20198;-72
2023/03/03 11:45:37;;;;;;;3.33;2.47;;;22.60;33.00;;;;;;5092231;28;20548;-72
2023/03/03 11:48:15;;;;;;;4.90;2.43;;;24.40;31.90;;;;;;5092059;28;20736;-73
2023/03/03 11:50:55;;;;;;;2.37;1.63;;;24.50;30.10;;;;;;5091992;28;20223;-72
2023/03/03 11:53:43;;;;;;;2.17;1.90;;;23.00;29.80;;;;;;5091925;28;20207;-70
2023/03/03 11:56:22;;;;;;;2.07;1.30;;;24.50;29.50;;;;;;5092234;28;20632;-70
2023/03/03 11:59:09;;;;;;;3.00;2.30;;;25.20;29.20;;;;;;5092182;28;20569;-69
2023/03/03 12:01:46;;;;;;;3.77;1.40;;;24.70;28.20;;;;;;5089294;28;20236;-70
2023/03/03 12:04:22;;;;;;;5.13;3.00;;;22.70;29.10;;;;;;5091721;28;20188;-70
2023/03/03 12:07:11;;;;;;;3.27;1.90;;;23.00;29.90;;;;;;5092154;28;20250;-72
2023/03/03 12:09:55;;;;;;;2.73;1.70;;;21.30;31.80;;;;;;5091815;28;20219;-72
2023/03/03 12:12:29;;;;;;;2.87;2.03;;;19.90;32.50;;;;;;5091743;28;20282;-71
2023/03/03 12:15:08;;;;;;;4.33;1.50;;;19.80;32.90;;;;;;5091719;28;20263;-72
2023/03/03 12:17:54;;;;;;;3.10;1.93;;;16.90;35.30;;;;;;5091710;28;20248;-71
2023/03/03 12:20:31;;;;;;;5.80;2.60;;;15.50;39.20;;;;;;5091665;28;20570;-71
2023/03/03 12:23:11;;;;;;;3.43;1.77;;;14.90;41.30;;;;;;5091693;28;20223;-71
2023/03/03 12:25:42;;;;;;;7.17;2.50;;;13.90;42.40;;;;;;5091831;28;20196;-72
2023/03/03 12:28:19;;;;;;;4.83;1.77;;;13.50;44.20;;;;;;5091741;28;20249;-70
2023/03/03 12:31:21;;;;;;;5.47;2.10;;;12.80;42.70;;;;;;5091760;28;20232;-72
2023/03/03 12:33:57;;;;;;;4.47;2.03;;;12.90;45.00;;;;;;5091647;28;20676;-72
2023/03/03 12:36:56;;;;;;;3.03;2.27;;;12.90;46.90;;;;;;5091549;28;20206;-71
2023/03/03 12:39:38;;;;;;;6.57;2.67;;;13.10;45.50;;;;;;5009509;28;20219;-71
2023/03/03 12:42:16;;;;;;;3.40;2.10;;;13.60;43.90;;;;;;5009663;28;20230;-71
2023/03/03 12:44:49;;;;;;;2.10;1.90;;;15.70;42.40;;;;;;5009414;28;20299;-70
2023/03/03 12:47:27;;;;;;;2.20;2.00;;;19.00;36.50;;;;;;5009315;28;20215;-72
2023/03/03 12:50:11;;;;;;;4.10;2.47;;;20.10;33.40;;;;;;5013492;28;20234;-71
2023/03/03 12:52:52;;;;;;;4.00;2.30;;;22.30;31.10;;;;;;5013264;28;20208;-72
2023/03/03 12:55:30;;;;;;;3.10;2.00;;;23.00;30.00;;;;;;5013331;28;20216;-70
2023/03/03 12:58:04;;;;;;;4.70;3.37;;;21.30;30.20;;;;;;5013385;28;20610;-70
2023/03/03 13:00:47;;;;;;;6.60;4.00;;;22.30;30.50;;;;;;5013040;28;20212;-69
2023/03/03 13:03:28;;;;;;;3.70;1.97;;;21.70;29.20;;;;;;5013076;28;20230;-70
2023/03/03 13:06:07;;;;;;;3.13;2.23;;;22.40;30.40;;;;;;5013216;28;20760;-71
2023/03/03 13:08:54;;;;;;;5.57;2.33;;;23.60;30.70;;;;;;5013001;28;20198;-70
2023/03/03 13:11:46;;;;;;;4.73;3.17;;;24.30;29.10;;;;;;5012782;28;20338;-71
2023/03/03 13:14:28;;;;;;;3.77;1.70;;;24.80;29.50;;;;;;5012936;28;20211;-71
2023/03/03 13:17:09;;;;;;;7.27;1.93;;;24.00;29.10;;;;;;5074913;28;20200;-72
2023/03/03 13:19:41;;;;;;;4.50;1.80;;;23.80;29.50;;;;;;5095007;28;20230;-71
2023/03/03 13:22:14;;;;;;;3.73;2.00;;;23.40;29.20;;;;;;5094798;28;20192;-71